sensor_id;sensor_type;location;lat;lon;timestamp;temperature;humidity
39847;DHT22;25517;52.422;10.782;2024-03-22T00:00:05;8.20;99.90
39847;DHT22;25517;52.422;10.782;2024-03-22T00:02:31;8.20;99.90
39847;DHT22;25517;52.422;10.782;2024-03-22T00:04:56;8.20;99.90
39847;DHT22;25517;52.422;10.782;2024-03-22T00:07:22;8.20;99.90
39847;DHT22;25517;52.422;10.782;2024-03-22T00:09:47;8.20;99.90
39847;DHT22;25517;52.422;10.782;2024-03-22T00:12:13;8.20;99.90
39847;DHT22;25517;52.422;10.782;2024-03-22T00:14:38;8.30;99.90
39847;DHT22;25517;52.422;10.782;2024-03-22T00:17:04;8.30;99.90
39847;DHT22;25517;52.422;10.782;2024-03-22T00:19:29;8.30;99.90
39847;DHT22;25517;52.422;10.782;2024-03-22T00:21:55;8.30;99.90
39847;DHT22;25517;52.422;10.782;2024-03-22T00:24:20;8.30;99.90
39847;DHT22;25517;52.422;10.782;2024-03-22T00:26:46;8.30;99.90
39847;DHT22;25517;52.422;10.782;2024-03-22T00:29:11;8.30;99.90
39847;DHT22;25517;52.422;10.782;2024-03-22T00:31:37;8.30;99.90
39847;DHT22;25517;52.422;10.782;2024-03-22T00:34:02;8.30;99.90
39847;DHT22;25517;52.422;10.782;2024-03-22T00:36:28;8.40;99.90
39847;DHT22;25517;52.422;10.782;2024-03-22T00:38:53;8.30;99.90
39847;DHT22;25517;52.422;10.782;2024-03-22T00:41:19;8.40;99.90
39847;DHT22;25517;52.422;10.782;2024-03-22T00:43:44;8.40;99.90
39847;DHT22;25517;52.422;10.782;2024-03-22T00:46:15;8.40;99.90
39847;DHT22;25517;52.422;10.782;2024-03-22T00:48:43;8.40;99.90
39847;DHT22;25517;52.422;10.782;2024-03-22T00:51:09;8.40;99.90
39847;DHT22;25517;52.422;10.782;2024-03-22T00:53:38;8.40;99.90
39847;DHT22;25517;52.422;10.782;2024-03-22T00:56:07;8.40;99.90
39847;DHT22;25517;52.422;10.782;2024-03-22T00:58:36;8.50;99.90
39847;DHT22;25517;52.422;10.782;2024-03-22T01:01:01;8.50;99.90
39847;DHT22;25517;52.422;10.782;2024-03-22T01:03:30;8.50;99.90
39847;DHT22;25517;52.422;10.782;2024-03-22T01:05:58;8.50;99.90
39847;DHT22;25517;52.422;10.782;2024-03-22T01:08:23;8.50;99.90
39847;DHT22;25517;52.422;10.782;2024-03-22T01:10:49;8.50;99.90
39847;DHT22;25517;52.422;10.782;2024-03-22T01:13:20;8.50;99.90
39847;DHT22;25517;52.422;10.782;2024-03-22T01:15:46;8.60;99.90
39847;DHT22;25517;52.422;10.782;2024-03-22T01:18:15;8.50;99.90
39847;DHT22;25517;52.422;10.782;2024-03-22T01:20:44;8.50;99.90
39847;DHT22;25517;52.422;10.782;2024-03-22T01:23:09;8.60;99.90
39847;DHT22;25517;52.422;10.782;2024-03-22T01:25:35;8.60;99.90
39847;DHT22;25517;52.422;10.782;2024-03-22T01:28:01;8.60;99.90
39847;DHT22;25517;52.422;10.782;2024-03-22T01:30:27;8.60;99.90
39847;DHT22;25517;52.422;10.782;2024-03-22T01:32:54;8.60;99.90
39847;DHT22;25517;52.422;10.782;2024-03-22T01:35:20;8.60;99.90
39847;DHT22;25517;52.422;10.782;2024-03-22T01:37:46;8.60;99.90
39847;DHT22;25517;52.422;10.782;2024-03-22T01:40:13;8.60;99.90
39847;DHT22;25517;52.422;10.782;2024-03-22T01:42:39;8.60;99.90
39847;DHT22;25517;52.422;10.782;2024-03-22T01:45:05;8.60;99.90
39847;DHT22;25517;52.422;10.782;2024-03-22T01:47:31;8.60;99.90
39847;DHT22;25517;52.422;10.782;2024-03-22T01:50:01;8.70;99.90
39847;DHT22;25517;52.422;10.782;2024-03-22T01:52:27;8.70;99.90
39847;DHT22;25517;52.422;10.782;2024-03-22T01:54:53;8.70;99.90
39847;DHT22;25517;52.422;10.782;2024-03-22T01:57:19;8.70;99.90
39847;DHT22;25517;52.422;10.782;2024-03-22T01:59:46;8.70;99.90
39847;DHT22;25517;52.422;10.782;2024-03-22T02:02:13;8.70;99.90
39847;DHT22;25517;52.422;10.782;2024-03-22T02:04:39;8.70;99.90
39847;DHT22;25517;52.422;10.782;2024-03-22T02:07:05;8.70;99.90
39847;DHT22;25517;52.422;10.782;2024-03-22T02:09:31;8.70;99.90
39847;DHT22;25517;52.422;10.782;2024-03-22T02:11:57;8.80;99.90
39847;DHT22;25517;52.422;10.782;2024-03-22T02:14:23;8.80;99.90
39847;DHT22;25517;52.422;10.782;2024-03-22T02:16:49;8.80;99.90
39847;DHT22;25517;52.422;10.782;2024-03-22T02:19:14;8.80;99.90
39847;DHT22;25517;52.422;10.782;2024-03-22T02:21:40;8.80;99.90
39847;DHT22;25517;52.422;10.782;2024-03-22T02:24:06;8.90;99.90
39847;DHT22;25517;52.422;10.782;2024-03-22T02:26:32;8.90;99.90
39847;DHT22;25517;52.422;10.782;2024-03-22T02:28:58;8.90;99.90
39847;DHT22;25517;52.422;10.782;2024-03-22T02:31:24;8.90;99.90
39847;DHT22;25517;52.422;10.782;2024-03-22T02:33:51;8.90;99.90
39847;DHT22;25517;52.422;10.782;2024-03-22T02:36:17;8.90;99.90
39847;DHT22;25517;52.422;10.782;2024-03-22T02:38:42;9.00;99.90
39847;DHT22;25517;52.422;10.782;2024-03-22T02:41:08;9.00;99.90
39847;DHT22;25517;52.422;10.782;2024-03-22T02:43:36;9.00;99.90
39847;DHT22;25517;52.422;10.782;2024-03-22T02:46:02;9.00;99.90
39847;DHT22;25517;52.422;10.782;2024-03-22T02:48:28;9.00;99.90
39847;DHT22;25517;52.422;10.782;2024-03-22T02:50:59;9.00;99.90
39847;DHT22;25517;52.422;10.782;2024-03-22T02:53:26;9.00;99.90
39847;DHT22;25517;52.422;10.782;2024-03-22T02:55:55;9.00;99.90
39847;DHT22;25517;52.422;10.782;2024-03-22T02:58:23;9.00;99.90
39847;DHT22;25517;52.422;10.782;2024-03-22T03:00:49;9.10;99.90
39847;DHT22;25517;52.422;10.782;2024-03-22T03:03:15;9.10;99.90
39847;DHT22;25517;52.422;10.782;2024-03-22T03:05:43;9.10;99.90
39847;DHT22;25517;52.422;10.782;2024-03-22T03:08:10;9.10;99.90
39847;DHT22;25517;52.422;10.782;2024-03-22T03:10:39;9.10;99.90
39847;DHT22;25517;52.422;10.782;2024-03-22T03:13:10;9.20;99.90
39847;DHT22;25517;52.422;10.782;2024-03-22T03:15:36;9.20;99.90
39847;DHT22;25517;52.422;10.782;2024-03-22T03:18:04;9.10;99.90
39847;DHT22;25517;52.422;10.782;2024-03-22T03:20:32;9.20;99.90
39847;DHT22;25517;52.422;10.782;2024-03-22T03:22:58;9.20;99.90
39847;DHT22;25517;52.422;10.782;2024-03-22T03:25:27;9.20;99.90
39847;DHT22;25517;52.422;10.782;2024-03-22T03:27:53;9.20;99.90
39847;DHT22;25517;52.422;10.782;2024-03-22T03:30:18;9.20;99.90
39847;DHT22;25517;52.422;10.782;2024-03-22T03:32:44;9.20;99.90
39847;DHT22;25517;52.422;10.782;2024-03-22T03:35:10;9.20;99.90
39847;DHT22;25517;52.422;10.782;2024-03-22T03:37:36;9.20;99.90
39847;DHT22;25517;52.422;10.782;2024-03-22T03:40:02;9.20;99.90
39847;DHT22;25517;52.422;10.782;2024-03-22T03:42:27;9.20;99.90
39847;DHT22;25517;52.422;10.782;2024-03-22T03:44:53;9.20;99.90
39847;DHT22;25517;52.422;10.782;2024-03-22T03:47:19;9.20;99.90
39847;DHT22;25517;52.422;10.782;2024-03-22T03:49:48;9.30;99.90
39847;DHT22;25517;52.422;10.782;2024-03-22T03:52:16;9.20;99.90
39847;DHT22;25517;52.422;10.782;2024-03-22T03:54:44;9.20;99.90
39847;DHT22;25517;52.422;10.782;2024-03-22T03:57:10;9.30;99.90
39847;DHT22;25517;52.422;10.782;2024-03-22T03:59:36;9.30;99.90
39847;DHT22;25517;52.422;10.782;2024-03-22T04:02:02;9.30;99.90
39847;DHT22;25517;52.422;10.782;2024-03-22T04:04:28;9.30;99.90
39847;DHT22;25517;52.422;10.782;2024-03-22T04:06:54;9.30;99.90
39847;DHT22;25517;52.422;10.782;2024-03-22T04:09:19;9.20;99.90
39847;DHT22;25517;52.422;10.782;2024-03-22T04:11:45;9.20;99.90
39847;DHT22;25517;52.422;10.782;2024-03-22T04:14:13;9.20;99.90
39847;DHT22;25517;52.422;10.782;2024-03-22T04:16:39;9.20;99.90
39847;DHT22;25517;52.422;10.782;2024-03-22T04:19:05;9.20;99.90
39847;DHT22;25517;52.422;10.782;2024-03-22T04:21:31;9.20;99.90
39847;DHT22;25517;52.422;10.782;2024-03-22T04:24:00;9.20;99.90
39847;DHT22;25517;52.422;10.782;2024-03-22T04:26:26;9.20;99.90
39847;DHT22;25517;52.422;10.782;2024-03-22T04:28:51;9.20;99.90
39847;DHT22;25517;52.422;10.782;2024-03-22T04:31:17;9.20;99.90
39847;DHT22;25517;52.422;10.782;2024-03-22T04:33:43;9.20;99.90
39847;DHT22;25517;52.422;10.782;2024-03-22T04:36:08;9.20;99.90
39847;DHT22;25517;52.422;10.782;2024-03-22T04:38:35;9.20;99.90
39847;DHT22;25517;52.422;10.782;2024-03-22T04:41:00;9.20;99.90
39847;DHT22;25517;52.422;10.782;2024-03-22T04:43:28;9.30;99.90
39847;DHT22;25517;52.422;10.782;2024-03-22T04:45:54;9.20;99.90
39847;DHT22;25517;52.422;10.782;2024-03-22T04:48:21;9.30;99.90
39847;DHT22;25517;52.422;10.782;2024-03-22T04:50:51;9.20;99.90
39847;DHT22;25517;52.422;10.782;2024-03-22T04:53:18;9.20;99.90
39847;DHT22;25517;52.422;10.782;2024-03-22T04:55:45;9.30;99.90
39847;DHT22;25517;52.422;10.782;2024-03-22T04:58:14;9.30;99.90
39847;DHT22;25517;52.422;10.782;2024-03-22T05:00:41;9.30;99.90
39847;DHT22;25517;52.422;10.782;2024-03-22T05:03:07;9.30;99.90
39847;DHT22;25517;52.422;10.782;2024-03-22T05:05:34;9.30;99.90
39847;DHT22;25517;52.422;10.782;2024-03-22T05:08:00;9.30;99.90
39847;DHT22;25517;52.422;10.782;2024-03-22T05:10:26;9.30;99.90
39847;DHT22;25517;52.422;10.782;2024-03-22T05:12:51;9.30;99.90
39847;DHT22;25517;52.422;10.782;2024-03-22T05:15:17;9.30;99.90
39847;DHT22;25517;52.422;10.782;2024-03-22T05:17:43;9.30;99.90
39847;DHT22;25517;52.422;10.782;2024-03-22T05:20:09;9.40;99.90
39847;DHT22;25517;52.422;10.782;2024-03-22T05:22:39;9.40;99.90
39847;DHT22;25517;52.422;10.782;2024-03-22T05:25:05;9.40;99.90
39847;DHT22;25517;52.422;10.782;2024-03-22T05:27:31;9.40;99.90
39847;DHT22;25517;52.422;10.782;2024-03-22T05:29:58;9.40;99.90
39847;DHT22;25517;52.422;10.782;2024-03-22T05:32:25;9.40;99.90
39847;DHT22;25517;52.422;10.782;2024-03-22T05:34:52;9.40;99.90
39847;DHT22;25517;52.422;10.782;2024-03-22T05:37:17;9.50;99.90
39847;DHT22;25517;52.422;10.782;2024-03-22T05:39:43;9.50;99.90
39847;DHT22;25517;52.422;10.782;2024-03-22T05:42:09;9.50;99.90
39847;DHT22;25517;52.422;10.782;2024-03-22T05:44:34;9.50;99.90
39847;DHT22;25517;52.422;10.782;2024-03-22T05:47:00;9.50;99.90
39847;DHT22;25517;52.422;10.782;2024-03-22T05:49:26;9.60;99.90
39847;DHT22;25517;52.422;10.782;2024-03-22T05:51:52;9.60;99.90
39847;DHT22;25517;52.422;10.782;2024-03-22T05:54:18;9.60;99.90
39847;DHT22;25517;52.422;10.782;2024-03-22T05:56:44;9.60;99.90
39847;DHT22;25517;52.422;10.782;2024-03-22T05:59:09;9.60;99.90
39847;DHT22;25517;52.422;10.782;2024-03-22T06:01:35;9.70;99.90
39847;DHT22;25517;52.422;10.782;2024-03-22T06:04:01;9.70;99.90
39847;DHT22;25517;52.422;10.782;2024-03-22T06:06:27;9.70;99.90
39847;DHT22;25517;52.422;10.782;2024-03-22T06:08:53;9.80;99.90
39847;DHT22;25517;52.422;10.782;2024-03-22T06:11:20;9.80;99.90
39847;DHT22;25517;52.422;10.782;2024-03-22T06:13:49;9.90;99.90
39847;DHT22;25517;52.422;10.782;2024-03-22T06:16:19;9.90;99.90
39847;DHT22;25517;52.422;10.782;2024-03-22T06:18:45;9.90;99.90
39847;DHT22;25517;52.422;10.782;2024-03-22T06:21:11;10.00;99.90
39847;DHT22;25517;52.422;10.782;2024-03-22T06:23:40;10.00;99.90
39847;DHT22;25517;52.422;10.782;2024-03-22T06:26:09;10.00;99.90
39847;DHT22;25517;52.422;10.782;2024-03-22T06:28:35;10.10;99.90
39847;DHT22;25517;52.422;10.782;2024-03-22T06:31:01;10.20;99.90
39847;DHT22;25517;52.422;10.782;2024-03-22T06:33:27;10.20;99.90
39847;DHT22;25517;52.422;10.782;2024-03-22T06:35:53;10.30;99.90
39847;DHT22;25517;52.422;10.782;2024-03-22T06:38:18;10.30;99.90
39847;DHT22;25517;52.422;10.782;2024-03-22T06:40:45;10.40;99.90
39847;DHT22;25517;52.422;10.782;2024-03-22T06:43:10;10.40;99.90
39847;DHT22;25517;52.422;10.782;2024-03-22T06:45:39;10.40;99.90
39847;DHT22;25517;52.422;10.782;2024-03-22T06:48:04;10.50;99.90
39847;DHT22;25517;52.422;10.782;2024-03-22T06:53:52;10.50;99.90
39847;DHT22;25517;52.422;10.782;2024-03-22T06:56:17;10.50;99.90
39847;DHT22;25517;52.422;10.782;2024-03-22T06:58:45;10.60;99.90
39847;DHT22;25517;52.422;10.782;2024-03-22T07:01:11;10.60;99.90
39847;DHT22;25517;52.422;10.782;2024-03-22T07:03:37;10.60;99.90
39847;DHT22;25517;52.422;10.782;2024-03-22T07:06:03;10.70;99.90
39847;DHT22;25517;52.422;10.782;2024-03-22T07:08:29;10.70;99.90
39847;DHT22;25517;52.422;10.782;2024-03-22T07:10:55;10.70;99.90
39847;DHT22;25517;52.422;10.782;2024-03-22T07:13:21;10.80;99.90
39847;DHT22;25517;52.422;10.782;2024-03-22T07:15:47;10.90;99.90
39847;DHT22;25517;52.422;10.782;2024-03-22T07:18:13;10.90;99.90
39847;DHT22;25517;52.422;10.782;2024-03-22T07:20:40;10.90;99.90
39847;DHT22;25517;52.422;10.782;2024-03-22T07:23:07;11.00;99.90
39847;DHT22;25517;52.422;10.782;2024-03-22T07:25:33;11.00;99.90
39847;DHT22;25517;52.422;10.782;2024-03-22T07:27:58;11.10;99.90
39847;DHT22;25517;52.422;10.782;2024-03-22T07:30:24;11.10;99.90
39847;DHT22;25517;52.422;10.782;2024-03-22T07:32:50;11.20;99.90
39847;DHT22;25517;52.422;10.782;2024-03-22T07:35:16;11.20;99.90
39847;DHT22;25517;52.422;10.782;2024-03-22T07:37:42;11.40;99.90
39847;DHT22;25517;52.422;10.782;2024-03-22T07:40:08;11.40;99.90
39847;DHT22;25517;52.422;10.782;2024-03-22T07:42:34;11.40;99.90
39847;DHT22;25517;52.422;10.782;2024-03-22T07:45:00;11.50;99.90
39847;DHT22;25517;52.422;10.782;2024-03-22T07:47:25;11.60;99.90
39847;DHT22;25517;52.422;10.782;2024-03-22T07:49:51;11.60;99.90
39847;DHT22;25517;52.422;10.782;2024-03-22T07:52:17;11.60;99.90
39847;DHT22;25517;52.422;10.782;2024-03-22T07:54:43;11.70;99.90
39847;DHT22;25517;52.422;10.782;2024-03-22T07:57:09;11.70;99.90
39847;DHT22;25517;52.422;10.782;2024-03-22T07:59:36;11.80;99.90
39847;DHT22;25517;52.422;10.782;2024-03-22T08:02:05;11.90;99.90
39847;DHT22;25517;52.422;10.782;2024-03-22T08:04:31;11.90;99.90
39847;DHT22;25517;52.422;10.782;2024-03-22T08:06:57;12.00;99.90
39847;DHT22;25517;52.422;10.782;2024-03-22T08:09:23;12.10;99.90
39847;DHT22;25517;52.422;10.782;2024-03-22T08:11:48;12.10;99.90
39847;DHT22;25517;52.422;10.782;2024-03-22T08:14:14;12.10;99.90
39847;DHT22;25517;52.422;10.782;2024-03-22T08:16:43;12.00;99.90
39847;DHT22;25517;52.422;10.782;2024-03-22T08:19:08;12.00;99.90
39847;DHT22;25517;52.422;10.782;2024-03-22T08:21:34;12.00;99.90
39847;DHT22;25517;52.422;10.782;2024-03-22T08:24:05;12.00;99.90
39847;DHT22;25517;52.422;10.782;2024-03-22T08:26:31;12.00;99.90
39847;DHT22;25517;52.422;10.782;2024-03-22T08:28:57;12.00;99.90
39847;DHT22;25517;52.422;10.782;2024-03-22T08:31:23;12.00;99.90
39847;DHT22;25517;52.422;10.782;2024-03-22T08:33:51;12.00;99.90
39847;DHT22;25517;52.422;10.782;2024-03-22T08:36:20;12.00;99.90
39847;DHT22;25517;52.422;10.782;2024-03-22T08:38:45;11.90;99.90
39847;DHT22;25517;52.422;10.782;2024-03-22T08:41:11;11.90;99.90
39847;DHT22;25517;52.422;10.782;2024-03-22T08:43:37;11.90;99.90
39847;DHT22;25517;52.422;10.782;2024-03-22T08:46:03;11.90;99.90
39847;DHT22;25517;52.422;10.782;2024-03-22T08:48:29;11.90;99.90
39847;DHT22;25517;52.422;10.782;2024-03-22T08:50:54;11.90;99.90
39847;DHT22;25517;52.422;10.782;2024-03-22T08:53:20;11.90;99.90
39847;DHT22;25517;52.422;10.782;2024-03-22T08:55:50;11.90;99.90
39847;DHT22;25517;52.422;10.782;2024-03-22T08:58:17;11.90;99.90
39847;DHT22;25517;52.422;10.782;2024-03-22T09:00:44;11.90;99.90
39847;DHT22;25517;52.422;10.782;2024-03-22T09:03:10;12.00;99.90
39847;DHT22;25517;52.422;10.782;2024-03-22T09:05:38;12.10;99.90
39847;DHT22;25517;52.422;10.782;2024-03-22T09:08:07;12.10;99.90
39847;DHT22;25517;52.422;10.782;2024-03-22T09:10:32;12.10;99.90
39847;DHT22;25517;52.422;10.782;2024-03-22T09:12:59;12.20;99.90
39847;DHT22;25517;52.422;10.782;2024-03-22T09:15:25;12.20;99.90
39847;DHT22;25517;52.422;10.782;2024-03-22T09:17:59;12.30;99.90
39847;DHT22;25517;52.422;10.782;2024-03-22T09:20:25;12.50;99.90
39847;DHT22;25517;52.422;10.782;2024-03-22T09:22:53;12.60;99.90
39847;DHT22;25517;52.422;10.782;2024-03-22T09:25:19;12.70;99.90
39847;DHT22;25517;52.422;10.782;2024-03-22T09:27:45;12.80;99.90
39847;DHT22;25517;52.422;10.782;2024-03-22T09:30:12;13.00;99.90
39847;DHT22;25517;52.422;10.782;2024-03-22T09:32:43;13.00;99.90
39847;DHT22;25517;52.422;10.782;2024-03-22T09:35:09;13.10;99.90
39847;DHT22;25517;52.422;10.782;2024-03-22T09:37:36;13.10;99.90
39847;DHT22;25517;52.422;10.782;2024-03-22T09:40:05;13.10;99.90
39847;DHT22;25517;52.422;10.782;2024-03-22T09:42:33;13.00;99.90
39847;DHT22;25517;52.422;10.782;2024-03-22T09:44:59;13.00;99.90
39847;DHT22;25517;52.422;10.782;2024-03-22T09:47:28;13.00;99.90
39847;DHT22;25517;52.422;10.782;2024-03-22T09:49:55;12.80;99.90
39847;DHT22;25517;52.422;10.782;2024-03-22T09:52:22;12.70;99.90
39847;DHT22;25517;52.422;10.782;2024-03-22T09:54:48;12.80;99.90
39847;DHT22;25517;52.422;10.782;2024-03-22T09:57:24;12.80;99.90
39847;DHT22;25517;52.422;10.782;2024-03-22T09:59:54;12.70;99.90
39847;DHT22;25517;52.422;10.782;2024-03-22T10:02:20;12.70;99.90
39847;DHT22;25517;52.422;10.782;2024-03-22T10:04:47;12.60;99.90
39847;DHT22;25517;52.422;10.782;2024-03-22T10:07:16;12.60;99.90
39847;DHT22;25517;52.422;10.782;2024-03-22T10:09:46;12.50;99.90
39847;DHT22;25517;52.422;10.782;2024-03-22T10:12:16;12.50;99.90
39847;DHT22;25517;52.422;10.782;2024-03-22T10:14:44;12.50;99.90
39847;DHT22;25517;52.422;10.782;2024-03-22T10:17:10;12.50;99.90
39847;DHT22;25517;52.422;10.782;2024-03-22T10:19:36;12.50;99.90
39847;DHT22;25517;52.422;10.782;2024-03-22T10:22:05;12.40;99.90
39847;DHT22;25517;52.422;10.782;2024-03-22T10:24:32;12.30;99.90
39847;DHT22;25517;52.422;10.782;2024-03-22T10:27:02;12.30;99.90
39847;DHT22;25517;52.422;10.782;2024-03-22T10:29:28;12.30;99.90
39847;DHT22;25517;52.422;10.782;2024-03-22T10:31:55;12.40;99.90
39847;DHT22;25517;52.422;10.782;2024-03-22T10:34:24;12.30;99.90
39847;DHT22;25517;52.422;10.782;2024-03-22T10:36:50;12.40;99.90
39847;DHT22;25517;52.422;10.782;2024-03-22T10:39:17;12.40;99.90
39847;DHT22;25517;52.422;10.782;2024-03-22T10:41:47;12.60;99.90
39847;DHT22;25517;52.422;10.782;2024-03-22T10:44:16;12.70;99.90
39847;DHT22;25517;52.422;10.782;2024-03-22T10:46:45;12.80;99.90
39847;DHT22;25517;52.422;10.782;2024-03-22T10:49:20;13.10;99.90
39847;DHT22;25517;52.422;10.782;2024-03-22T10:51:52;13.40;99.90
39847;DHT22;25517;52.422;10.782;2024-03-22T10:54:22;13.60;99.90
39847;DHT22;25517;52.422;10.782;2024-03-22T10:56:50;13.70;99.90
39847;DHT22;25517;52.422;10.782;2024-03-22T10:59:20;13.80;99.90
39847;DHT22;25517;52.422;10.782;2024-03-22T11:01:50;13.70;99.90
39847;DHT22;25517;52.422;10.782;2024-03-22T11:04:22;13.80;99.90
39847;DHT22;25517;52.422;10.782;2024-03-22T11:06:59;13.70;99.90
39847;DHT22;25517;52.422;10.782;2024-03-22T11:09:26;13.80;99.90
39847;DHT22;25517;52.422;10.782;2024-03-22T11:11:53;13.80;99.90
39847;DHT22;25517;52.422;10.782;2024-03-22T11:14:19;13.70;99.90
39847;DHT22;25517;52.422;10.782;2024-03-22T11:16:49;13.70;99.90
39847;DHT22;25517;52.422;10.782;2024-03-22T11:19:15;13.80;99.90
39847;DHT22;25517;52.422;10.782;2024-03-22T11:21:41;13.90;99.90
39847;DHT22;25517;52.422;10.782;2024-03-22T11:24:07;13.90;99.90
39847;DHT22;25517;52.422;10.782;2024-03-22T11:26:34;13.90;99.90
39847;DHT22;25517;52.422;10.782;2024-03-22T11:29:05;13.90;99.90
39847;DHT22;25517;52.422;10.782;2024-03-22T11:31:34;14.00;99.90
39847;DHT22;25517;52.422;10.782;2024-03-22T11:34:02;14.10;99.90
39847;DHT22;25517;52.422;10.782;2024-03-22T11:36:29;14.10;99.90
39847;DHT22;25517;52.422;10.782;2024-03-22T11:38:54;14.10;99.90
39847;DHT22;25517;52.422;10.782;2024-03-22T11:41:26;14.10;99.90
39847;DHT22;25517;52.422;10.782;2024-03-22T11:43:53;14.10;99.90
39847;DHT22;25517;52.422;10.782;2024-03-22T11:46:19;14.00;99.90
39847;DHT22;25517;52.422;10.782;2024-03-22T11:48:53;13.90;99.90
39847;DHT22;25517;52.422;10.782;2024-03-22T11:51:26;13.90;99.90
39847;DHT22;25517;52.422;10.782;2024-03-22T11:53:55;13.90;99.90
39847;DHT22;25517;52.422;10.782;2024-03-22T11:56:21;13.80;99.90
39847;DHT22;25517;52.422;10.782;2024-03-22T11:58:48;13.90;99.90
39847;DHT22;25517;52.422;10.782;2024-03-22T12:01:17;14.10;99.90
39847;DHT22;25517;52.422;10.782;2024-03-22T12:03:49;14.50;99.90
39847;DHT22;25517;52.422;10.782;2024-03-22T12:06:18;14.80;99.90
39847;DHT22;25517;52.422;10.782;2024-03-22T12:08:44;15.10;99.90
39847;DHT22;25517;52.422;10.782;2024-03-22T12:11:13;15.10;99.90
39847;DHT22;25517;52.422;10.782;2024-03-22T12:13:39;15.20;99.90
39847;DHT22;25517;52.422;10.782;2024-03-22T12:16:06;15.20;99.90
39847;DHT22;25517;52.422;10.782;2024-03-22T12:18:32;15.30;99.90
39847;DHT22;25517;52.422;10.782;2024-03-22T12:21:08;15.10;99.90
39847;DHT22;25517;52.422;10.782;2024-03-22T12:23:34;15.00;99.90
39847;DHT22;25517;52.422;10.782;2024-03-22T12:26:00;15.00;99.90
39847;DHT22;25517;52.422;10.782;2024-03-22T12:28:26;15.00;99.90
39847;DHT22;25517;52.422;10.782;2024-03-22T12:30:52;15.10;99.90
39847;DHT22;25517;52.422;10.782;2024-03-22T12:33:18;15.20;99.90
39847;DHT22;25517;52.422;10.782;2024-03-22T12:35:44;15.10;99.90
39847;DHT22;25517;52.422;10.782;2024-03-22T12:38:10;15.10;99.90
39847;DHT22;25517;52.422;10.782;2024-03-22T12:40:38;15.00;99.90
39847;DHT22;25517;52.422;10.782;2024-03-22T12:43:04;15.00;99.90
39847;DHT22;25517;52.422;10.782;2024-03-22T12:45:30;14.90;99.90
39847;DHT22;25517;52.422;10.782;2024-03-22T12:47:56;14.90;99.90
39847;DHT22;25517;52.422;10.782;2024-03-22T12:50:22;14.70;99.90
39847;DHT22;25517;52.422;10.782;2024-03-22T12:52:48;14.60;99.90
39847;DHT22;25517;52.422;10.782;2024-03-22T12:55:14;14.60;99.90
39847;DHT22;25517;52.422;10.782;2024-03-22T12:57:40;14.60;99.90
39847;DHT22;25517;52.422;10.782;2024-03-22T13:00:06;14.60;99.90
39847;DHT22;25517;52.422;10.782;2024-03-22T13:02:42;14.50;99.90
39847;DHT22;25517;52.422;10.782;2024-03-22T13:05:10;14.50;99.90
39847;DHT22;25517;52.422;10.782;2024-03-22T13:07:38;14.50;99.90
39847;DHT22;25517;52.422;10.782;2024-03-22T13:10:07;14.40;99.90
39847;DHT22;25517;52.422;10.782;2024-03-22T13:12:33;14.40;99.90
39847;DHT22;25517;52.422;10.782;2024-03-22T13:15:00;14.30;99.90
39847;DHT22;25517;52.422;10.782;2024-03-22T13:17:27;14.30;99.90
39847;DHT22;25517;52.422;10.782;2024-03-22T13:19:53;14.30;99.90
39847;DHT22;25517;52.422;10.782;2024-03-22T13:22:19;14.20;99.90
39847;DHT22;25517;52.422;10.782;2024-03-22T13:24:50;14.30;99.90
39847;DHT22;25517;52.422;10.782;2024-03-22T13:27:19;14.20;99.90
39847;DHT22;25517;52.422;10.782;2024-03-22T13:29:49;14.30;99.90
39847;DHT22;25517;52.422;10.782;2024-03-22T13:32:17;14.20;99.90
39847;DHT22;25517;52.422;10.782;2024-03-22T13:34:46;14.30;99.90
39847;DHT22;25517;52.422;10.782;2024-03-22T13:37:11;14.20;99.90
39847;DHT22;25517;52.422;10.782;2024-03-22T13:39:37;14.20;99.90
39847;DHT22;25517;52.422;10.782;2024-03-22T13:42:06;14.10;99.90
39847;DHT22;25517;52.422;10.782;2024-03-22T13:44:35;14.10;99.90
39847;DHT22;25517;52.422;10.782;2024-03-22T13:47:01;14.10;99.90
39847;DHT22;25517;52.422;10.782;2024-03-22T13:49:32;14.00;99.90
39847;DHT22;25517;52.422;10.782;2024-03-22T13:52:00;13.90;99.90
39847;DHT22;25517;52.422;10.782;2024-03-22T13:54:26;13.90;99.90
39847;DHT22;25517;52.422;10.782;2024-03-22T13:56:52;13.80;99.90
39847;DHT22;25517;52.422;10.782;2024-03-22T13:59:21;13.80;99.90
39847;DHT22;25517;52.422;10.782;2024-03-22T14:01:49;13.70;99.90
39847;DHT22;25517;52.422;10.782;2024-03-22T14:04:18;13.70;99.90
39847;DHT22;25517;52.422;10.782;2024-03-22T14:06:45;13.70;99.90
39847;DHT22;25517;52.422;10.782;2024-03-22T14:09:14;13.60;99.90
39847;DHT22;25517;52.422;10.782;2024-03-22T14:11:41;13.60;99.90
39847;DHT22;25517;52.422;10.782;2024-03-22T14:14:11;13.50;99.90
39847;DHT22;25517;52.422;10.782;2024-03-22T14:16:38;13.50;99.90
39847;DHT22;25517;52.422;10.782;2024-03-22T14:19:03;13.50;99.90
39847;DHT22;25517;52.422;10.782;2024-03-22T14:21:31;13.50;99.90
39847;DHT22;25517;52.422;10.782;2024-03-22T14:23:57;13.40;99.90
39847;DHT22;25517;52.422;10.782;2024-03-22T14:26:26;13.40;99.90
39847;DHT22;25517;52.422;10.782;2024-03-22T14:28:54;13.40;99.90
39847;DHT22;25517;52.422;10.782;2024-03-22T14:31:23;13.40;99.90
39847;DHT22;25517;52.422;10.782;2024-03-22T14:33:49;13.30;99.90
39847;DHT22;25517;52.422;10.782;2024-03-22T14:36:15;13.20;99.90
39847;DHT22;25517;52.422;10.782;2024-03-22T14:38:43;13.20;99.90
39847;DHT22;25517;52.422;10.782;2024-03-22T14:41:11;13.10;99.90
39847;DHT22;25517;52.422;10.782;2024-03-22T14:43:37;13.00;99.90
39847;DHT22;25517;52.422;10.782;2024-03-22T14:46:06;13.00;99.90
39847;DHT22;25517;52.422;10.782;2024-03-22T14:48:35;13.00;99.90
39847;DHT22;25517;52.422;10.782;2024-03-22T14:51:01;13.00;99.90
39847;DHT22;25517;52.422;10.782;2024-03-22T14:53:29;13.00;99.90
39847;DHT22;25517;52.422;10.782;2024-03-22T14:56:02;12.90;99.90
39847;DHT22;25517;52.422;10.782;2024-03-22T14:58:36;12.90;99.90
39847;DHT22;25517;52.422;10.782;2024-03-22T15:01:03;12.90;99.90
39847;DHT22;25517;52.422;10.782;2024-03-22T15:03:30;12.80;99.90
39847;DHT22;25517;52.422;10.782;2024-03-22T15:05:58;12.70;99.90
39847;DHT22;25517;52.422;10.782;2024-03-22T15:08:25;12.70;99.90
39847;DHT22;25517;52.422;10.782;2024-03-22T15:10:52;12.60;99.90
39847;DHT22;25517;52.422;10.782;2024-03-22T15:13:21;12.60;99.90
39847;DHT22;25517;52.422;10.782;2024-03-22T15:15:56;12.60;99.90
39847;DHT22;25517;52.422;10.782;2024-03-22T15:18:22;12.60;99.90
39847;DHT22;25517;52.422;10.782;2024-03-22T15:20:54;12.50;99.90
39847;DHT22;25517;52.422;10.782;2024-03-22T15:23:20;12.40;99.90